createdAt,value
2018-10-04T00:04:11.652Z,5.47
2018-10-04T00:09:16.394Z,5.37
2018-10-04T00:14:20.057Z,5.50
2018-10-04T00:19:23.724Z,5.70
2018-10-04T00:24:29.511Z,5.80
2018-10-04T00:29:36.441Z,6.83
2018-10-04T00:34:40.263Z,6.00
2018-10-04T00:39:44.387Z,5.80
2018-10-04T00:44:48.749Z,6.03
2018-10-04T00:49:52.919Z,6.50
2018-10-04T00:54:57.003Z,6.10
2018-10-04T01:00:01.343Z,6.70
2018-10-04T01:05:05.125Z,5.80
2018-10-04T01:10:09.735Z,5.93
2018-10-04T01:15:13.999Z,5.03
2018-10-04T01:20:17.608Z,5.77
2018-10-04T01:25:28.536Z,5.87
2018-10-04T01:30:32.470Z,5.20
2018-10-04T01:35:36.448Z,5.80
2018-10-04T01:40:40.452Z,6.03
2018-10-04T01:45:49.796Z,5.67
2018-10-04T01:50:53.756Z,4.77
2018-10-04T01:55:57.542Z,6.33
2018-10-04T02:01:01.206Z,6.27
2018-10-04T02:06:05.007Z,7.30
2018-10-04T02:11:08.632Z,8.30
2018-10-04T02:16:12.596Z,8.83
2018-10-04T02:21:16.543Z,8.20
2018-10-04T02:26:20.202Z,7.67
2018-10-04T02:31:23.802Z,6.63
2018-10-04T02:36:28.528Z,7.07
2018-10-04T02:41:32.195Z,6.70
2018-10-04T02:46:35.912Z,6.97
2018-10-04T02:51:40.105Z,6.67
2018-10-04T02:56:49.271Z,7.33
2018-10-04T03:01:53.980Z,7.10
2018-10-04T03:06:58.195Z,6.10
2018-10-04T03:12:02.399Z,6.73
2018-10-04T03:17:06.234Z,6.70
2018-10-04T03:22:10.702Z,6.30
2018-10-04T03:27:14.529Z,5.83
2018-10-04T03:32:18.977Z,5.87
2018-10-04T03:37:23.828Z,6.03
2018-10-04T03:42:27.871Z,4.90
2018-10-04T03:47:32.165Z,4.90
2018-10-04T03:52:35.871Z,4.30
2018-10-04T03:57:39.962Z,4.90
2018-10-04T04:02:45.916Z,5.33
2018-10-04T04:07:50.349Z,4.97
2018-10-04T04:12:54.319Z,4.80
2018-10-04T04:17:58.120Z,4.80
2018-10-04T04:23:03.707Z,5.03
2018-10-04T04:28:07.763Z,4.63
2018-10-04T04:33:11.463Z,5.47
2018-10-04T04:38:15.535Z,4.23
2018-10-04T04:43:19.269Z,4.77
2018-10-04T04:48:24.196Z,4.70
2018-10-04T04:53:33.479Z,5.60
2018-10-04T04:58:37.913Z,5.20
2018-10-04T05:03:42.486Z,4.83
2018-10-04T05:08:47.102Z,4.70
2018-10-04T05:13:50.775Z,4.80
2018-10-04T05:18:54.399Z,5.23
2018-10-04T05:23:59.560Z,5.23
2018-10-04T05:29:03.704Z,4.87
2018-10-04T05:34:07.427Z,4.07
2018-10-04T05:39:11.538Z,5.80
2018-10-04T05:44:15.679Z,5.30
2018-10-04T05:49:19.866Z,6.57
2018-10-04T05:54:24.137Z,6.37
2018-10-04T05:59:28.180Z,4.77
2018-10-04T06:04:32.098Z,6.27
2018-10-04T06:09:36.645Z,7.00
2018-10-04T06:14:40.345Z,6.67
2018-10-04T06:19:44.213Z,8.00
2018-10-04T06:24:49.374Z,6.10
2018-10-04T06:29:53.276Z,7.47
2018-10-04T06:34:57.714Z,8.80
2018-10-04T06:40:01.900Z,9.63
2018-10-04T06:45:08.845Z,8.23
2018-10-04T06:50:12.882Z,9.17
2018-10-04T06:55:16.636Z,10.87
2018-10-04T07:00:21.659Z,9.90
2018-10-04T07:05:26.357Z,10.20
2018-10-04T07:10:30.241Z,8.43
2018-10-04T07:15:33.961Z,10.07
2018-10-04T07:20:38.779Z,10.80
2018-10-04T07:25:42.805Z,11.00
2018-10-04T07:30:51.979Z,11.07
2018-10-04T07:35:56.696Z,10.63
2018-10-04T07:41:00.920Z,11.10
2018-10-04T07:46:04.752Z,11.93
2018-10-04T07:51:11.554Z,13.67
2018-10-04T07:56:15.439Z,13.20
2018-10-04T08:01:19.453Z,14.80
2018-10-04T08:06:23.327Z,13.97
2018-10-04T08:11:27.133Z,12.60
2018-10-04T08:16:30.892Z,12.60
2018-10-04T08:21:34.897Z,12.47
2018-10-04T08:26:39.004Z,15.07
2018-10-04T08:31:42.634Z,10.87
2018-10-04T08:36:48.281Z,10.70
2018-10-04T08:41:52.441Z,9.77
2018-10-04T08:46:57.288Z,7.83
2018-10-04T08:52:01.394Z,11.20
2018-10-04T08:57:05.168Z,5.90
2018-10-04T09:02:13.389Z,5.60
2018-10-04T09:07:19.527Z,5.10
2018-10-04T09:12:23.635Z,5.00
2018-10-04T09:17:28.144Z,5.17
2018-10-04T09:22:31.888Z,4.40
2018-10-04T09:27:35.658Z,4.70
2018-10-04T09:32:39.324Z,5.57
2018-10-04T09:37:43.051Z,6.20
2018-10-04T09:42:47.276Z,4.67
2018-10-04T09:47:55.567Z,4.53
2018-10-04T09:52:59.222Z,6.17
2018-10-04T09:58:03.053Z,5.70
2018-10-04T10:03:08.517Z,6.50
2018-10-04T10:08:12.462Z,6.80
2018-10-04T10:13:16.337Z,5.43
2018-10-04T10:18:22.300Z,5.53
2018-10-04T10:23:28.402Z,5.50
2018-10-04T10:28:32.831Z,4.60
2018-10-04T10:33:36.568Z,4.20
2018-10-04T10:38:40.819Z,3.97
2018-10-04T10:43:44.608Z,3.50
2018-10-04T10:48:48.286Z,3.10
2018-10-04T10:53:52.061Z,3.33
2018-10-04T10:58:55.721Z,3.73
2018-10-04T11:04:00.384Z,2.93
2018-10-04T11:09:05.801Z,2.20
2018-10-04T11:14:10.460Z,2.47
2018-10-04T11:19:15.927Z,2.50
2018-10-04T11:24:19.858Z,3.17
2018-10-04T11:29:23.797Z,2.17
2018-10-04T11:34:27.573Z,2.50
2018-10-04T11:39:32.036Z,2.10
2018-10-04T11:44:39.360Z,2.60
2018-10-04T11:49:43.111Z,2.50
2018-10-04T11:54:48.130Z,2.70
2018-10-04T11:59:54.024Z,2.20
2018-10-04T12:04:58.258Z,2.50
2018-10-04T12:10:02.857Z,2.40
2018-10-04T12:15:06.684Z,2.70
2018-10-04T12:20:11.063Z,1.90
2018-10-04T12:25:15.849Z,2.27
2018-10-04T12:30:19.812Z,1.83
2018-10-04T12:35:23.469Z,1.57
2018-10-04T12:40:27.172Z,2.23
2018-10-04T12:45:30.783Z,1.70
2018-10-04T12:50:34.594Z,2.00
2018-10-04T12:55:40.191Z,2.00
2018-10-04T13:00:43.947Z,2.43
2018-10-04T13:05:48.033Z,2.40
2018-10-04T13:10:52.326Z,2.00
2018-10-04T13:16:06.180Z,2.00
2018-10-04T13:21:10.385Z,2.13
2018-10-04T13:26:14.245Z,2.17
2018-10-04T13:31:18.077Z,1.87
2018-10-04T13:36:21.971Z,2.07
2018-10-04T13:41:28.091Z,1.90
2018-10-04T13:46:32.435Z,2.30
2018-10-04T13:51:37.544Z,2.20
2018-10-04T13:56:42.475Z,2.07
2018-10-04T14:01:46.665Z,2.67
2018-10-04T14:06:52.094Z,2.60
2018-10-04T14:11:56.169Z,2.70
2018-10-04T14:17:01.218Z,2.00
2018-10-04T14:22:06.180Z,2.10
2018-10-04T14:27:09.977Z,3.00
2018-10-04T14:32:14.076Z,2.77
2018-10-04T14:37:18.521Z,3.00
2018-10-04T14:42:22.384Z,3.00
2018-10-04T14:47:26.182Z,3.10
2018-10-04T14:52:31.094Z,2.30
2018-10-04T14:57:35.155Z,2.80
2018-10-04T15:02:38.983Z,2.30
2018-10-04T15:07:42.942Z,3.90
2018-10-04T15:12:48.690Z,2.90
2018-10-04T15:17:52.535Z,2.60
2018-10-04T15:22:56.943Z,3.07
2018-10-04T15:28:00.871Z,2.40
2018-10-04T15:33:04.916Z,2.17
2018-10-04T15:38:09.941Z,2.30
2018-10-04T15:43:13.900Z,2.30
2018-10-04T15:48:17.837Z,3.90
2018-10-04T15:53:21.794Z,2.50
2018-10-04T15:58:25.688Z,2.50
2018-10-04T16:03:31.268Z,2.40
2018-10-04T16:08:34.998Z,2.23
2018-10-04T16:13:39.618Z,2.20
2018-10-04T16:18:43.468Z,2.40
2018-10-04T16:23:47.400Z,2.70
2018-10-04T16:28:51.264Z,2.77
2018-10-04T16:33:55.861Z,3.00
2018-10-04T16:39:01.752Z,2.83
2018-10-04T16:44:05.421Z,2.70
2018-10-04T16:49:09.168Z,3.00
2018-10-04T16:54:12.786Z,6.33
2018-10-04T16:59:17.301Z,10.50
2018-10-04T17:04:49.963Z,3.07
2018-10-04T17:09:54.780Z,3.17
2018-10-04T17:14:58.687Z,2.70
2018-10-04T17:20:02.887Z,2.77
2018-10-04T17:25:06.883Z,2.80
2018-10-04T17:30:11.219Z,2.67
2018-10-04T17:35:16.178Z,2.83
2018-10-04T17:40:20.245Z,2.93
2018-10-04T17:45:24.144Z,3.10
2018-10-04T17:50:28.835Z,4.57
2018-10-04T17:55:32.736Z,4.67
2018-10-04T18:00:50.002Z,5.00
2018-10-04T18:05:55.208Z,4.37
2018-10-04T18:10:59.573Z,7.43
2018-10-04T18:16:04.874Z,5.20
2018-10-04T18:21:09.429Z,13.53
2018-10-04T18:26:13.597Z,16.63
2018-10-04T18:31:17.684Z,15.70
2018-10-04T18:36:21.774Z,10.13
2018-10-04T18:41:31.839Z,6.93
2018-10-04T18:46:36.167Z,6.37
2018-10-04T18:51:40.637Z,9.30
2018-10-04T18:56:46.850Z,6.63
2018-10-04T19:01:51.101Z,7.00
2018-10-04T19:06:56.529Z,5.60
2018-10-04T19:12:01.792Z,6.10
2018-10-04T19:17:06.298Z,14.27
2018-10-04T19:22:10.803Z,26.03
2018-10-04T19:27:15.522Z,17.80
2018-10-04T19:32:24.270Z,7.27
2018-10-04T19:37:28.258Z,5.20
2018-10-04T19:42:44.460Z,5.30
2018-10-04T19:47:48.808Z,5.37
2018-10-04T19:52:55.227Z,7.10
2018-10-04T19:57:59.345Z,6.07
2018-10-04T20:03:03.592Z,5.33
2018-10-04T20:08:07.942Z,5.50
2018-10-04T20:13:14.778Z,5.70
2018-10-04T20:18:18.918Z,5.10
2018-10-04T20:23:25.527Z,5.40
2018-10-04T20:28:29.498Z,4.97
2018-10-04T20:33:33.539Z,5.20
2018-10-04T20:38:37.353Z,5.40
2018-10-04T20:43:41.479Z,8.80
2018-10-04T20:48:45.543Z,5.17
2018-10-04T20:53:49.724Z,4.60
2018-10-04T20:58:54.040Z,5.73
2018-10-04T21:03:58.161Z,6.17
2018-10-04T21:09:02.687Z,5.10
2018-10-04T21:14:06.613Z,5.80
2018-10-04T21:19:12.036Z,5.20
2018-10-04T21:24:16.326Z,5.47
2018-10-04T21:29:20.557Z,5.17
2018-10-04T21:34:26.296Z,5.20
2018-10-04T21:39:30.075Z,5.97
2018-10-04T21:44:33.725Z,6.30
2018-10-04T21:49:37.937Z,5.47
2018-10-04T21:54:41.726Z,6.07
2018-10-04T21:59:45.693Z,6.53
2018-10-04T22:04:50.989Z,6.23
2018-10-04T22:09:55.258Z,6.20
2018-10-04T22:14:58.892Z,6.23
2018-10-04T22:20:02.539Z,5.40
2018-10-04T22:25:06.324Z,6.30
2018-10-04T22:30:09.951Z,6.23
2018-10-04T22:35:13.621Z,5.70
2018-10-04T22:40:17.256Z,6.23
2018-10-04T22:45:21.591Z,6.63
2018-10-04T22:50:25.266Z,6.60
2018-10-04T22:55:29.192Z,5.90
2018-10-04T23:00:33.832Z,6.17
2018-10-04T23:05:37.556Z,6.23
2018-10-04T23:10:41.475Z,5.90
2018-10-04T23:15:45.422Z,6.33
2018-10-04T23:20:49.080Z,6.00
2018-10-04T23:25:52.710Z,6.60
2018-10-04T23:30:56.292Z,5.50
2018-10-04T23:35:59.961Z,5.73
2018-10-04T23:41:05.383Z,5.37
2018-10-04T23:46:09.283Z,6.17
2018-10-04T23:51:12.900Z,6.80
2018-10-04T23:56:16.874Z,5.80
